Time;durP1;ratioP1;P1;durP2;ratioP2;P2;SDS_P1;SDS_P2;PMS_P1;PMS_P2;Temp;Humidity;BMP_temperature;BMP_pressure;BME280_temperature;BME280_humidity;BME280_pressure;Samples;Min_cycle;Max_cycle;Signal;HPM_P1;HPM_P2
2022/10/19 00:01:03;;;;;;;70.87;48.20;;;8.60;99.90;;;;;;5131862;27;20207;-52
2022/10/19 00:03:31;;;;;;;237.57;148.47;;;8.60;99.90;;;;;;5131961;27;20290;-51
2022/10/19 00:06:00;;;;;;;217.63;124.03;;;8.60;99.90;;;;;;5131894;27;20219;-52
2022/10/19 00:08:28;;;;;;;177.37;104.37;;;8.60;99.90;;;;;;5131931;27;20209;-51
2022/10/19 00:10:57;;;;;;;196.33;98.83;;;8.60;99.90;;;;;;5131600;27;20551;-51
2022/10/19 00:13:25;;;;;;;170.40;122.50;;;8.60;99.90;;;;;;5131817;27;20246;-51
2022/10/19 00:15:53;;;;;;;499.50;192.63;;;8.50;99.90;;;;;;5132416;27;20310;-51
2022/10/19 00:18:21;;;;;;;227.73;136.37;;;8.50;99.90;;;;;;5117825;27;20210;-51
2022/10/19 00:20:49;;;;;;;325.23;137.57;;;8.50;99.90;;;;;;5131775;27;20305;-51
2022/10/19 00:23:17;;;;;;;227.00;99.27;;;8.40;99.90;;;;;;5131136;27;20290;-51
2022/10/19 00:25:55;;;;;;;175.13;116.03;;;8.30;99.90;;;;;;5131234;27;20310;-51
2022/10/19 00:28:25;;;;;;;139.80;79.67;;;8.30;99.90;;;;;;5130945;27;20702;-51
2022/10/19 00:30:53;;;;;;;182.77;100.77;;;8.30;99.90;;;;;;5127568;27;20300;-51
2022/10/19 00:33:21;;;;;;;410.63;182.73;;;8.30;99.90;;;;;;5128558;27;20751;-55
2022/10/19 00:35:49;;;;;;;116.03;52.77;;;8.20;99.90;;;;;;5131272;27;20312;-52
2022/10/19 00:38:17;;;;;;;255.60;103.40;;;8.20;99.90;;;;;;5129185;27;20210;-51
2022/10/19 00:40:47;;;;;;;351.17;145.43;;;8.20;99.90;;;;;;5118518;27;20203;-52
2022/10/19 00:43:16;;;;;;;598.23;232.93;;;8.20;99.90;;;;;;5131006;27;20230;-51
2022/10/19 00:45:45;;;;;;;66.67;42.47;;;8.20;99.90;;;;;;5130734;27;20703;-51
2022/10/19 00:48:17;;;;;;;105.63;54.23;;;8.20;99.90;;;;;;5130675;27;20242;-51
2022/10/19 00:50:46;;;;;;;53.30;21.53;;;8.20;99.90;;;;;;5122790;27;20290;-51
2022/10/19 00:53:15;;;;;;;180.97;91.53;;;8.10;99.90;;;;;;5130789;27;20309;-51
2022/10/19 00:55:43;;;;;;;41.00;32.40;;;8.10;99.90;;;;;;5130358;27;20310;-51
2022/10/19 00:58:12;;;;;;;255.60;130.33;;;8.10;99.90;;;;;;5130860;27;20231;-51
2022/10/19 01:00:40;;;;;;;255.27;158.93;;;8.10;99.90;;;;;;5126877;27;20823;-51
2022/10/19 01:03:12;;;;;;;187.77;126.77;;;8.00;99.90;;;;;;5117980;27;20206;-51
2022/10/19 01:05:41;;;;;;;88.50;57.83;;;8.00;99.90;;;;;;5130433;27;20269;-51
2022/10/19 01:08:09;;;;;;;240.10;122.23;;;8.00;99.90;;;;;;5130162;27;20206;-51
2022/10/19 01:10:52;;;;;;;41.40;20.40;;;7.90;99.90;;;;;;5130551;27;20240;-51
2022/10/19 01:13:31;;;;;;;40.40;26.70;;;7.80;99.90;;;;;;5130088;27;20714;-51
2022/10/19 01:16:05;;;;;;;100.07;78.20;;;7.80;99.90;;;;;;5129676;27;20302;-51
2022/10/19 01:18:43;;;;;;;451.27;167.27;;;7.80;99.90;;;;;;5130893;27;20213;-51
2022/10/19 01:21:23;;;;;;;99.30;52.97;;;7.80;99.90;;;;;;5130531;27;20203;-51
2022/10/19 01:24:24;;;;;;;129.87;52.83;;;7.70;99.90;;;;;;5129954;27;20203;-51
2022/10/19 01:27:32;;;;;;;36.50;19.57;;;7.60;99.90;;;;;;5130599;27;20231;-52
2022/10/19 01:30:15;;;;;;;73.90;40.33;;;7.60;99.90;;;;;;5111052;27;20979;-50
2022/10/19 01:32:54;;;;;;;31.93;21.53;;;7.50;99.90;;;;;;5125805;27;20234;-52
2022/10/19 01:35:32;;;;;;;386.17;157.03;;;7.50;99.90;;;;;;5128276;27;20286;-52
2022/10/19 01:38:11;;;;;;;38.60;24.60;;;7.50;99.90;;;;;;5127151;27;20754;-51
2022/10/19 01:40:45;;;;;;;46.33;30.73;;;7.50;99.90;;;;;;5129481;27;20736;-52
2022/10/19 01:43:21;;;;;;;239.53;153.63;;;7.50;99.90;;;;;;5130031;27;20216;-51
2022/10/19 01:45:54;;;;;;;22.10;13.73;;;7.50;99.90;;;;;;5129792;27;20232;-51
2022/10/19 01:48:26;;;;;;;35.93;17.10;;;7.50;99.90;;;;;;5129379;27;20198;-51
2022/10/19 01:51:00;;;;;;;17.87;11.40;;;7.50;99.90;;;;;;5128727;27;20285;-52
2022/10/19 01:53:30;;;;;;;86.33;53.43;;;7.50;99.90;;;;;;5129996;27;20293;-51
2022/10/19 01:56:02;;;;;;;72.60;37.20;;;7.50;99.90;;;;;;5130173;27;20298;-51
2022/10/19 01:58:35;;;;;;;84.53;55.50;;;7.50;99.90;;;;;;5129657;27;21013;-52
2022/10/19 02:01:06;;;;;;;64.63;45.60;;;7.40;99.90;;;;;;5129515;27;20755;-51
2022/10/19 02:03:36;;;;;;;60.37;38.97;;;7.40;99.90;;;;;;5129848;28;20215;-51
2022/10/19 02:06:06;;;;;;;51.20;26.60;;;7.40;99.90;;;;;;5129865;27;20721;-51
2022/10/19 02:08:39;;;;;;;109.60;66.63;;;7.40;99.90;;;;;;5130148;27;20293;-52
2022/10/19 02:11:07;;;;;;;245.83;151.83;;;7.40;99.90;;;;;;5129503;27;20686;-51
2022/10/19 02:13:37;;;;;;;254.07;107.00;;;7.30;99.90;;;;;;5129456;27;20290;-51
2022/10/19 02:16:12;;;;;;;47.87;35.50;;;7.30;99.90;;;;;;5129281;27;20224;-51
2022/10/19 02:18:45;;;;;;;67.60;46.63;;;7.30;99.90;;;;;;5130214;27;20206;-52
2022/10/19 02:21:13;;;;;;;407.83;167.70;;;7.20;99.90;;;;;;5129752;27;20306;-52
2022/10/19 02:23:41;;;;;;;109.97;57.93;;;7.10;99.90;;;;;;5127787;27;20288;-52
2022/10/19 02:26:09;;;;;;;468.90;199.53;;;7.10;99.90;;;;;;5129750;27;20317;-52
2022/10/19 02:28:38;;;;;;;155.80;74.47;;;7.10;99.90;;;;;;5129814;27;20288;-51
2022/10/19 02:31:07;;;;;;;185.93;82.63;;;7.00;99.90;;;;;;5129173;27;20218;-52
2022/10/19 02:33:37;;;;;;;40.30;27.60;;;7.10;99.90;;;;;;5128224;27;20296;-51
2022/10/19 02:36:05;;;;;;;73.20;46.73;;;7.10;99.90;;;;;;5129834;27;20329;-52
2022/10/19 02:38:34;;;;;;;100.83;54.07;;;7.10;99.90;;;;;;5129056;27;20240;-51
2022/10/19 02:41:08;;;;;;;56.17;25.90;;;7.10;99.90;;;;;;5129451;28;20204;-52
2022/10/19 02:43:39;;;;;;;15.77;9.77;;;7.10;99.90;;;;;;5129224;27;20689;-51
2022/10/19 02:46:13;;;;;;;77.77;52.10;;;7.10;99.90;;;;;;5128426;27;20655;-52
2022/10/19 02:48:43;;;;;;;24.00;15.63;;;7.10;99.90;;;;;;5123406;28;20213;-51
2022/10/19 02:51:32;;;;;;;119.40;69.63;;;7.00;99.90;;;;;;5129647;28;20297;-51
2022/10/19 02:54:01;;;;;;;27.53;19.53;;;7.00;99.90;;;;;;5128993;27;20296;-52
2022/10/19 02:56:32;;;;;;;112.33;67.13;;;6.90;99.90;;;;;;5129292;27;20252;-51
2022/10/19 02:59:01;;;;;;;42.30;30.77;;;6.90;99.90;;;;;;5129542;27;20241;-51
2022/10/19 03:01:30;;;;;;;288.90;118.63;;;6.90;99.90;;;;;;5132147;27;20296;-51
2022/10/19 03:03:58;;;;;;;23.23;16.43;;;6.90;99.90;;;;;;5132602;27;20589;-51
2022/10/19 03:06:26;;;;;;;22.17;15.93;;;6.80;99.90;;;;;;5132916;27;20320;-52
2022/10/19 03:08:54;;;;;;;66.87;47.23;;;6.90;99.90;;;;;;5132463;27;20709;-52
2022/10/19 03:11:22;;;;;;;102.37;50.57;;;6.80;99.90;;;;;;5132757;27;20212;-51
2022/10/19 03:13:50;;;;;;;21.13;14.30;;;6.80;99.90;;;;;;5132720;27;20300;-51
2022/10/19 03:16:19;;;;;;;56.23;31.10;;;6.80;99.90;;;;;;5132585;27;20335;-51
2022/10/19 03:18:49;;;;;;;324.20;123.87;;;6.80;99.90;;;;;;5132882;27;20236;-52
2022/10/19 03:21:18;;;;;;;348.47;171.90;;;6.80;99.90;;;;;;5132833;27;20644;-51
2022/10/19 03:23:46;;;;;;;60.27;36.93;;;6.70;99.90;;;;;;5132463;27;20318;-51
2022/10/19 03:26:15;;;;;;;26.43;20.60;;;6.70;99.90;;;;;;5132279;27;20234;-52
2022/10/19 03:28:43;;;;;;;64.63;41.83;;;6.70;99.90;;;;;;5132692;27;20250;-51
2022/10/19 03:31:12;;;;;;;35.40;29.60;;;6.70;99.90;;;;;;5132089;27;20207;-52
2022/10/19 03:33:40;;;;;;;31.47;21.73;;;6.70;99.90;;;;;;5132041;27;20292;-51
2022/10/19 03:36:20;;;;;;;21.90;14.33;;;6.70;99.90;;;;;;5132207;27;20746;-51
2022/10/19 03:38:50;;;;;;;15.53;12.43;;;6.70;99.90;;;;;;5131867;27;20203;-51
2022/10/19 03:41:20;;;;;;;49.77;37.60;;;6.70;99.90;;;;;;5132147;27;20213;-51
2022/10/19 03:43:48;;;;;;;35.77;31.97;;;6.70;99.90;;;;;;5131690;27;20295;-51
2022/10/19 03:46:17;;;;;;;81.83;53.00;;;6.70;99.90;;;;;;5131818;27;20320;-52
2022/10/19 03:48:45;;;;;;;40.57;28.07;;;6.70;99.90;;;;;;5131899;27;20249;-51
2022/10/19 03:51:15;;;;;;;40.33;25.33;;;6.70;99.90;;;;;;5131768;27;20789;-51
2022/10/19 03:53:45;;;;;;;44.07;26.40;;;6.60;99.90;;;;;;5131371;27;20641;-51
2022/10/19 03:56:15;;;;;;;20.67;13.00;;;6.60;99.90;;;;;;5132402;27;20327;-51
2022/10/19 03:58:44;;;;;;;27.73;21.00;;;6.60;99.90;;;;;;5131362;27;20199;-52
2022/10/19 04:01:15;;;;;;;95.00;72.67;;;6.60;99.90;;;;;;5131570;27;20293;-51
2022/10/19 04:03:43;;;;;;;22.87;13.63;;;6.60;99.90;;;;;;5131442;27;20204;-51
2022/10/19 04:06:13;;;;;;;64.43;42.20;;;6.60;99.90;;;;;;5131482;27;20227;-51
2022/10/19 04:08:50;;;;;;;76.77;37.37;;;6.70;99.90;;;;;;5132227;27;20293;-51
2022/10/19 04:11:21;;;;;;;99.70;56.23;;;6.80;99.90;;;;;;5131318;27;20295;-52
2022/10/19 04:13:50;;;;;;;122.97;57.57;;;6.90;99.90;;;;;;5131261;27;20220;-51
2022/10/19 04:16:19;;;;;;;35.87;21.47;;;7.00;99.90;;;;;;5131284;27;20223;-51
2022/10/19 04:18:48;;;;;;;113.23;47.13;;;7.10;99.90;;;;;;5132159;27;20257;-51
2022/10/19 04:21:22;;;;;;;403.50;160.37;;;7.10;99.90;;;;;;5131729;27;20575;-50
2022/10/19 04:23:53;;;;;;;230.67;116.80;;;7.20;99.90;;;;;;5131317;27;20210;-52
2022/10/19 04:26:21;;;;;;;219.70;135.57;;;7.30;99.90;;;;;;5131156;27;20660;-51
2022/10/19 04:28:49;;;;;;;111.70;68.60;;;7.40;99.90;;;;;;5133949;27;20260;-51
2022/10/19 04:31:17;;;;;;;398.30;167.93;;;7.60;99.90;;;;;;5133771;27;20238;-52
2022/10/19 04:33:45;;;;;;;211.87;94.93;;;7.80;99.90;;;;;;5132630;27;20304;-52
2022/10/19 04:36:18;;;;;;;71.13;42.27;;;8.00;99.90;;;;;;5133392;27;20230;-52
2022/10/19 04:38:47;;;;;;;212.60;136.90;;;8.20;99.90;;;;;;5126086;27;20282;-52
2022/10/19 04:41:18;;;;;;;50.47;28.07;;;8.20;99.90;;;;;;5125933;27;20319;-52
2022/10/19 04:43:46;;;;;;;91.93;55.40;;;8.20;99.90;;;;;;5128233;27;20203;-51
2022/10/19 04:46:16;;;;;;;131.07;74.57;;;8.20;99.90;;;;;;5130178;27;20234;-52
2022/10/19 04:48:45;;;;;;;153.03;77.07;;;8.10;99.90;;;;;;5130712;27;20229;-52
2022/10/19 04:51:13;;;;;;;26.03;19.23;;;8.00;99.90;;;;;;5131036;27;20347;-52
2022/10/19 04:53:43;;;;;;;145.30;78.00;;;7.90;99.90;;;;;;5130104;27;20289;-51
2022/10/19 04:56:15;;;;;;;115.53;60.13;;;7.80;99.90;;;;;;5130553;27;20320;-51
2022/10/19 04:58:45;;;;;;;86.17;43.93;;;7.70;99.90;;;;;;5131358;27;20248;-51
2022/10/19 05:01:15;;;;;;;86.30;45.83;;;7.60;99.90;;;;;;5130348;27;20293;-52
2022/10/19 05:03:44;;;;;;;79.87;40.57;;;7.50;99.90;;;;;;5130413;27;20256;-51
2022/10/19 05:06:13;;;;;;;25.33;20.07;;;7.40;99.90;;;;;;5130239;27;20700;-51
2022/10/19 05:08:41;;;;;;;151.70;92.87;;;7.40;99.90;;;;;;5118288;27;20219;-51
2022/10/19 05:11:13;;;;;;;42.83;21.87;;;7.30;99.90;;;;;;5129917;27;20220;-51
2022/10/19 05:13:41;;;;;;;180.80;131.97;;;7.30;99.90;;;;;;5130170;27;20293;-51
2022/10/19 05:16:13;;;;;;;76.17;53.43;;;7.20;99.90;;;;;;5129668;27;20309;-50
2022/10/19 05:18:41;;;;;;;48.87;30.20;;;7.10;99.90;;;;;;5130777;27;20674;-51
2022/10/19 05:21:11;;;;;;;49.10;33.73;;;7.10;99.90;;;;;;5129937;27;20206;-51
2022/10/19 05:23:41;;;;;;;55.57;43.13;;;7.00;99.90;;;;;;5129399;27;20656;-51
2022/10/19 05:26:10;;;;;;;34.03;21.77;;;7.00;99.90;;;;;;5129334;27;20321;-51
2022/10/19 05:28:39;;;;;;;26.53;22.83;;;7.00;99.90;;;;;;5130459;27;20230;-51
2022/10/19 05:31:09;;;;;;;106.57;77.93;;;6.90;99.90;;;;;;5130185;27;20299;-51
2022/10/19 05:33:39;;;;;;;96.67;63.80;;;6.90;99.90;;;;;;5128187;27;20301;-52
2022/10/19 05:36:16;;;;;;;39.50;33.60;;;6.80;99.90;;;;;;5129907;27;20232;-51
2022/10/19 05:38:46;;;;;;;61.40;41.30;;;6.80;99.90;;;;;;5124419;27;20225;-51
2022/10/19 05:41:15;;;;;;;124.63;68.87;;;6.80;99.90;;;;;;5127485;27;20287;-51
2022/10/19 05:43:43;;;;;;;41.00;25.27;;;6.80;99.90;;;;;;5129871;27;20205;-50
2022/10/19 05:46:13;;;;;;;35.13;31.23;;;6.80;99.90;;;;;;5128795;27;20759;-51
2022/10/19 05:48:43;;;;;;;56.40;40.37;;;6.70;99.90;;;;;;5117935;27;20226;-50
2022/10/19 05:51:15;;;;;;;57.30;37.53;;;6.70;99.90;;;;;;5122083;27;20661;-51
2022/10/19 05:53:44;;;;;;;58.80;37.93;;;6.60;99.90;;;;;;5126729;27;20219;-51
2022/10/19 05:56:15;;;;;;;234.93;172.07;;;6.60;99.90;;;;;;5130181;27;20310;-51
2022/10/19 05:58:43;;;;;;;24.27;14.53;;;6.60;99.90;;;;;;5128709;27;20210;-51
2022/10/19 06:01:12;;;;;;;35.47;30.60;;;6.60;99.90;;;;;;5129713;28;20306;-51
2022/10/19 06:03:42;;;;;;;73.87;54.30;;;6.60;99.90;;;;;;5129231;27;20202;-51
2022/10/19 06:06:10;;;;;;;25.50;18.43;;;6.60;99.90;;;;;;5129745;27;20302;-52
2022/10/19 06:08:39;;;;;;;54.60;39.33;;;6.60;99.90;;;;;;5129816;27;20665;-51
2022/10/19 06:11:09;;;;;;;82.73;74.00;;;6.60;99.90;;;;;;5128722;27;20204;-51
2022/10/19 06:13:37;;;;;;;45.07;31.63;;;6.60;99.90;;;;;;5129708;27;20207;-51
2022/10/19 06:16:07;;;;;;;55.60;45.40;;;6.60;99.90;;;;;;5128857;27;20778;-51
2022/10/19 06:18:36;;;;;;;30.37;17.10;;;6.60;99.90;;;;;;5130149;27;20213;-52
2022/10/19 06:21:08;;;;;;;31.03;19.30;;;6.60;99.90;;;;;;5130064;27;20314;-51
2022/10/19 06:23:36;;;;;;;61.77;48.53;;;6.60;99.90;;;;;;5129056;27;20231;-51
2022/10/19 06:26:07;;;;;;;19.10;11.70;;;6.60;99.90;;;;;;5129609;28;20250;-51
2022/10/19 06:28:35;;;;;;;32.67;20.93;;;6.70;99.90;;;;;;5129237;27;20583;-50
2022/10/19 06:31:03;;;;;;;86.53;61.00;;;6.60;99.90;;;;;;5128757;27;20659;-51
2022/10/19 06:33:36;;;;;;;151.17;131.60;;;6.70;99.90;;;;;;5129305;27;20740;-51
2022/10/19 06:36:11;;;;;;;16.53;13.30;;;6.70;99.90;;;;;;5132834;27;20220;-51
2022/10/19 06:38:39;;;;;;;133.57;66.83;;;6.70;99.90;;;;;;5132841;27;20442;-51
2022/10/19 06:41:08;;;;;;;61.93;47.33;;;6.70;99.90;;;;;;5131786;27;20297;-51
2022/10/19 06:43:36;;;;;;;43.73;29.50;;;6.80;99.90;;;;;;5132973;27;20919;-51
2022/10/19 06:46:05;;;;;;;42.40;29.63;;;6.80;99.90;;;;;;5132836;27;20309;-51
2022/10/19 06:48:33;;;;;;;230.50;56.60;;;6.90;99.90;;;;;;5132632;27;20225;-51
2022/10/19 06:51:04;;;;;;;268.00;69.30;;;6.90;99.90;;;;;;5132895;27;20201;-51
2022/10/19 06:53:35;;;;;;;387.60;54.67;;;7.00;99.90;;;;;;5132839;27;20296;-51
2022/10/19 06:56:06;;;;;;;403.80;85.63;;;7.00;99.90;;;;;;5118605;27;20321;-51
2022/10/19 06:58:36;;;;;;;270.60;113.07;;;7.00;99.90;;;;;;5132479;27;20201;-51
2022/10/19 07:01:06;;;;;;;329.10;165.53;;;7.10;99.90;;;;;;5132419;27;20295;-51
2022/10/19 07:03:35;;;;;;;175.10;75.13;;;7.10;99.90;;;;;;5130478;27;20574;-50
2022/10/19 07:06:06;;;;;;;227.13;72.40;;;7.10;99.90;;;;;;5131441;27;20225;-51
2022/10/19 07:08:37;;;;;;;146.27;27.60;;;7.20;99.90;;;;;;5127845;27;20321;-51
2022/10/19 07:11:08;;;;;;;148.23;23.60;;;7.30;99.90;;;;;;5126955;27;20734;-51
2022/10/19 07:13:36;;;;;;;143.13;62.30;;;7.40;99.90;;;;;;5132195;27;20286;-51
2022/10/19 07:16:06;;;;;;;297.83;146.30;;;7.50;99.90;;;;;;5132282;27;20257;-50
2022/10/19 07:18:35;;;;;;;186.53;71.47;;;7.60;99.90;;;;;;5132504;27;20698;-51
2022/10/19 07:21:05;;;;;;;104.00;62.33;;;7.70;99.90;;;;;;5132560;27;20213;-51
2022/10/19 07:23:36;;;;;;;397.60;220.23;;;7.80;99.90;;;;;;5132118;27;20616;-51
2022/10/19 07:26:06;;;;;;;498.57;332.13;;;7.90;99.90;;;;;;5132287;27;20226;-51
2022/10/19 07:28:35;;;;;;;478.23;201.37;;;8.00;99.90;;;;;;5132371;27;20229;-50
2022/10/19 07:31:08;;;;;;;556.67;289.47;;;8.10;99.90;;;;;;5127062;27;20199;-51
2022/10/19 07:33:36;;;;;;;445.63;308.20;;;8.30;99.90;;;;;;5126765;27;20289;-52
2022/10/19 07:36:07;;;;;;;256.77;64.37;;;8.40;99.90;;;;;;5132542;27;20246;-50
2022/10/19 07:38:37;;;;;;;351.30;182.27;;;8.40;99.90;;;;;;5132821;27;20317;-51
2022/10/19 07:41:07;;;;;;;243.67;80.17;;;8.50;99.90;;;;;;5132215;27;20282;-51
2022/10/19 07:43:35;;;;;;;188.57;111.13;;;8.50;99.90;;;;;;5131372;27;20656;-51
2022/10/19 07:46:05;;;;;;;452.57;334.90;;;8.50;99.90;;;;;;5122991;27;20223;-50
2022/10/19 07:48:34;;;;;;;443.83;224.07;;;8.60;99.90;;;;;;5129229;27;20265;-51
2022/10/19 07:51:04;;;;;;;292.67;154.70;;;8.60;99.90;;;;;;5132280;27;20320;-51
2022/10/19 07:53:33;;;;;;;381.43;239.37;;;8.80;99.90;;;;;;5131513;27;20291;-51
2022/10/19 07:56:05;;;;;;;404.17;208.63;;;8.80;99.90;;;;;;5132282;27;20309;-51
2022/10/19 07:58:34;;;;;;;255.17;153.27;;;8.90;99.90;;;;;;5132085;27;20230;-52
2022/10/19 08:01:02;;;;;;;434.13;253.47;;;9.00;99.90;;;;;;5131540;27;20314;-51
2022/10/19 08:03:30;;;;;;;350.17;177.27;;;9.00;99.90;;;;;;5131830;27;20652;-51
2022/10/19 08:06:19;;;;;;;367.67;213.20;;;9.10;99.90;;;;;;5129834;27;20601;-51
2022/10/19 08:08:48;;;;;;;239.90;126.10;;;9.00;99.90;;;;;;5131383;27;20234;-51
2022/10/19 08:11:19;;;;;;;322.77;176.80;;;9.00;99.90;;;;;;5131142;27;20319;-51
2022/10/19 08:13:48;;;;;;;324.43;172.60;;;9.00;99.90;;;;;;5131323;27;20298;-51
2022/10/19 08:16:25;;;;;;;395.93;184.07;;;9.10;99.90;;;;;;5131353;27;20230;-51
2022/10/19 08:18:56;;;;;;;408.40;256.13;;;9.20;99.90;;;;;;5131957;27;20637;-51
2022/10/19 08:21:24;;;;;;;148.80;59.83;;;9.30;99.90;;;;;;5131351;27;20203;-51
2022/10/19 08:23:52;;;;;;;251.37;118.27;;;9.30;99.90;;;;;;5131578;27;20225;-51
2022/10/19 08:26:22;;;;;;;388.83;224.17;;;9.40;99.90;;;;;;5130851;27;20307;-51
2022/10/19 08:28:50;;;;;;;497.23;332.57;;;9.50;99.90;;;;;;5130978;27;20221;-51
2022/10/19 08:31:22;;;;;;;321.53;164.73;;;9.60;99.90;;;;;;5125871;27;20701;-51
2022/10/19 08:33:51;;;;;;;287.40;178.90;;;9.70;99.90;;;;;;5129897;27;20263;-51
2022/10/19 08:36:20;;;;;;;853.00;336.77;;;9.80;99.90;;;;;;5131457;27;20306;-51
2022/10/19 08:38:49;;;;;;;782.67;307.77;;;9.90;99.90;;;;;;5131264;27;20620;-50
2022/10/19 08:41:32;;;;;;;820.83;449.37;;;10.10;99.90;;;;;;5130907;27;20206;-51
2022/10/19 08:44:23;;;;;;;288.37;174.03;;;10.10;99.90;;;;;;5130424;27;20203;-51
2022/10/19 08:47:01;;;;;;;423.83;255.33;;;10.20;99.90;;;;;;5130923;27;20265;-50
2022/10/19 08:49:31;;;;;;;493.10;250.80;;;10.30;99.90;;;;;;5129869;27;20253;-51
2022/10/19 08:52:03;;;;;;;1090.10;510.40;;;10.40;99.90;;;;;;5123069;27;20253;-51
2022/10/19 08:54:40;;;;;;;635.70;356.80;;;10.50;99.90;;;;;;5130610;27;20646;-51
2022/10/19 08:57:18;;;;;;;1461.07;560.20;;;10.50;99.90;;;;;;5130409;27;20724;-51
2022/10/19 08:59:51;;;;;;;607.97;320.07;;;10.70;99.90;;;;;;5130092;27;20723;-51
2022/10/19 09:02:28;;;;;;;467.03;319.40;;;10.60;99.90;;;;;;5129943;27;20207;-51
2022/10/19 09:05:01;;;;;;;1817.13;629.47;;;10.60;99.90;;;;;;5116804;27;20199;-51
2022/10/19 09:07:31;;;;;;;782.90;327.67;;;10.80;99.90;;;;;;5130807;27;20313;-51
2022/10/19 09:10:04;;;;;;;821.00;402.33;;;10.80;99.90;;;;;;5130590;27;20305;-51
2022/10/19 09:12:42;;;;;;;554.33;317.23;;;10.80;99.90;;;;;;5129632;27;20340;-51
2022/10/19 09:15:14;;;;;;;618.37;304.50;;;10.80;99.90;;;;;;5130523;27;20209;-51
2022/10/19 09:17:42;;;;;;;720.17;319.57;;;10.90;99.90;;;;;;5130472;27;20642;-51
2022/10/19 09:20:17;;;;;;;818.53;354.10;;;10.90;99.90;;;;;;5130820;27;20252;-51
2022/10/19 09:22:46;;;;;;;661.37;339.73;;;10.90;99.90;;;;;;5130239;27;20214;-52
2022/10/19 09:25:19;;;;;;;651.67;438.93;;;11.00;99.90;;;;;;5130093;27;20299;-51
2022/10/19 09:27:53;;;;;;;1108.70;482.10;;;10.90;99.90;;;;;;5129976;27;20313;-51
2022/10/19 09:30:23;;;;;;;860.47;429.60;;;11.00;99.90;;;;;;5130462;27;20714;-51
2022/10/19 09:32:58;;;;;;;509.60;317.90;;;11.00;99.90;;;;;;5117402;27;20293;-51
2022/10/19 09:35:32;;;;;;;666.43;473.03;;;11.00;99.90;;;;;;5128205;27;20292;-51
2022/10/19 09:38:00;;;;;;;545.97;401.30;;;11.10;99.90;;;;;;5130257;27;20202;-51
2022/10/19 09:40:30;;;;;;;935.70;465.10;;;11.10;99.90;;;;;;5129333;27;20227;-51
2022/10/19 09:43:07;;;;;;;713.43;467.97;;;11.10;99.90;;;;;;5128515;27;20295;-51
2022/10/19 09:45:43;;;;;;;852.97;458.63;;;11.20;99.90;;;;;;5128789;27;20745;-51
2022/10/19 09:48:20;;;;;;;707.73;459.30;;;11.20;99.90;;;;;;5129377;27;20317;-51
2022/10/19 09:50:54;;;;;;;857.43;481.47;;;11.30;99.90;;;;;;5129751;27;20207;-53
2022/10/19 09:53:23;;;;;;;691.07;340.30;;;11.30;99.90;;;;;;5129579;27;20201;-52
2022/10/19 09:55:58;;;;;;;1622.57;754.47;;;11.40;99.90;;;;;;5129786;27;20344;-51
2022/10/19 09:58:29;;;;;;;1083.23;587.50;;;11.50;99.90;;;;;;5130767;27;20298;-51
2022/10/19 10:01:01;;;;;;;823.50;371.83;;;11.50;99.90;;;;;;5129959;27;20199;-51
2022/10/19 10:03:31;;;;;;;1018.20;550.37;;;11.50;99.90;;;;;;5130571;27;20314;-51
2022/10/19 10:06:02;;;;;;;1061.13;480.50;;;11.50;99.90;;;;;;5129902;27;20305;-51
2022/10/19 10:08:33;;;;;;;1704.23;768.53;;;11.60;99.90;;;;;;5129967;27;20293;-51
2022/10/19 10:11:12;;;;;;;1695.30;772.10;;;11.60;99.90;;;;;;5133988;27;20211;-51
2022/10/19 10:13:44;;;;;;;1275.93;670.87;;;11.50;99.90;;;;;;5133227;27;20290;-51
2022/10/19 10:16:16;;;;;;;1096.93;609.07;;;11.60;99.90;;;;;;5121246;27;20318;-52
2022/10/19 10:18:53;;;;;;;915.70;552.53;;;11.60;99.90;;;;;;5132916;27;20293;-51
2022/10/19 10:21:23;;;;;;;1157.77;575.93;;;11.70;99.90;;;;;;5134280;27;20209;-51
2022/10/19 10:24:01;;;;;;;1178.10;511.80;;;11.70;99.90;;;;;;5133330;27;20645;-51
2022/10/19 10:26:29;;;;;;;783.40;440.13;;;11.70;99.90;;;;;;5133181;27;20305;-51
2022/10/19 10:28:59;;;;;;;1999.90;806.53;;;11.80;99.90;;;;;;5133949;27;20663;-51
2022/10/19 10:31:30;;;;;;;945.83;493.97;;;11.90;99.90;;;;;;5125664;27;20226;-51
2022/10/19 10:34:01;;;;;;;1207.70;608.87;;;11.90;99.90;;;;;;5131862;27;20290;-51
2022/10/19 10:36:51;;;;;;;1320.47;660.83;;;11.90;99.90;;;;;;5133784;27;20218;-52
2022/10/19 10:39:20;;;;;;;1072.27;551.93;;;12.00;99.90;;;;;;5132088;27;20285;-51
2022/10/19 10:41:49;;;;;;;1097.47;589.17;;;12.00;99.90;;;;;;5132913;27;20203;-51
2022/10/19 10:44:21;;;;;;;1525.43;710.67;;;12.00;99.90;;;;;;5133613;27;20213;-51
2022/10/19 10:46:55;;;;;;;1565.90;690.70;;;12.00;99.90;;;;;;5132774;27;20227;-51
2022/10/19 10:49:26;;;;;;;762.30;413.87;;;12.00;99.90;;;;;;5132993;27;20231;-51
2022/10/19 10:51:56;;;;;;;1533.20;678.20;;;12.00;99.90;;;;;;5132386;27;20305;-51
2022/10/19 10:54:26;;;;;;;1875.50;642.40;;;12.10;99.90;;;;;;5132948;27;20744;-51
2022/10/19 10:57:05;;;;;;;681.77;323.07;;;12.20;99.90;;;;;;5132912;27;20711;-51
2022/10/19 10:59:39;;;;;;;594.67;342.60;;;12.20;99.90;;;;;;5132885;27;20655;-51
2022/10/19 11:02:34;;;;;;;1336.97;696.10;;;12.30;99.90;;;;;;5132811;27;20191;-51
2022/10/19 11:05:10;;;;;;;1656.87;801.63;;;12.40;99.90;;;;;;5132723;27;20282;-51
2022/10/19 11:07:42;;;;;;;1999.90;877.77;;;12.30;99.90;;;;;;5132677;27;20679;-50
2022/10/19 11:10:20;;;;;;;709.63;423.60;;;12.30;99.90;;;;;;5130323;27;20664;-52
2022/10/19 11:12:54;;;;;;;1169.40;597.90;;;12.30;99.90;;;;;;5132247;27;20261;-51
2022/10/19 11:15:27;;;;;;;1082.53;562.77;;;12.40;99.90;;;;;;5119581;27;20289;-51
2022/10/19 11:18:10;;;;;;;1032.77;597.43;;;12.30;99.90;;;;;;5132334;27;20286;-52
2022/10/19 11:20:47;;;;;;;877.90;431.30;;;12.30;99.90;;;;;;5132269;27;20199;-51
2022/10/19 11:23:20;;;;;;;1160.20;633.93;;;12.40;99.90;;;;;;5121440;27;20214;-51
2022/10/19 11:26:01;;;;;;;1610.27;695.33;;;12.40;99.90;;;;;;5128697;27;20222;-51
2022/10/19 11:28:45;;;;;;;1650.00;720.80;;;12.60;99.90;;;;;;5134594;27;20298;-51
2022/10/19 11:31:19;;;;;;;1999.90;910.53;;;12.60;99.90;;;;;;5132212;27;20261;-51
2022/10/19 11:33:59;;;;;;;1915.90;742.87;;;12.60;99.90;;;;;;5131878;27;20686;-51
2022/10/19 11:36:42;;;;;;;1078.67;616.53;;;12.60;99.90;;;;;;5139021;27;20772;-51
2022/10/19 11:39:29;;;;;;;1354.00;684.43;;;12.60;99.90;;;;;;5134485;27;20294;-51
2022/10/19 11:42:04;;;;;;;1228.37;621.30;;;12.60;99.90;;;;;;5132053;27;20842;-51
2022/10/19 11:44:45;;;;;;;1626.03;810.90;;;12.70;99.90;;;;;;5132248;27;20670;-51
2022/10/19 11:47:32;;;;;;;1660.70;838.53;;;12.70;99.90;;;;;;5138801;27;20228;-51
2022/10/19 11:50:18;;;;;;;865.87;537.80;;;12.70;99.90;;;;;;5152464;27;20681;-51
2022/10/19 11:52:56;;;;;;;1305.10;643.43;;;12.70;99.90;;;;;;5137331;27;20223;-51
2022/10/19 11:55:36;;;;;;;734.53;504.20;;;12.70;99.90;;;;;;5130113;27;20297;-51
2022/10/19 11:58:16;;;;;;;1249.63;652.27;;;12.80;99.90;;;;;;5125317;27;21062;-51
2022/10/19 12:00:49;;;;;;;1545.93;677.73;;;12.80;99.90;;;;;;5118556;27;20294;-52
2022/10/19 12:03:45;;;;;;;1162.87;567.33;;;12.90;99.90;;;;;;5142794;27;20286;-51
2022/10/19 12:06:22;;;;;;;943.83;531.07;;;13.00;99.90;;;;;;5126790;27;20313;-51
2022/10/19 12:09:06;;;;;;;1097.73;529.63;;;13.00;99.90;;;;;;5151991;27;20198;-50
2022/10/19 12:11:49;;;;;;;730.13;518.27;;;13.00;99.90;;;;;;5126148;27;20227;-52
2022/10/19 12:14:20;;;;;;;743.03;461.83;;;13.00;99.90;;;;;;5146242;27;20579;-51
2022/10/19 12:16:52;;;;;;;603.20;379.37;;;13.00;99.90;;;;;;5143068;27;20313;-51
2022/10/19 12:19:25;;;;;;;988.27;496.27;;;13.00;99.90;;;;;;5151694;27;20694;-51
2022/10/19 12:21:58;;;;;;;1006.77;627.80;;;13.00;99.90;;;;;;5151297;27;20217;-51
2022/10/19 12:24:29;;;;;;;755.63;460.80;;;13.00;99.90;;;;;;5151920;27;20315;-51
2022/10/19 12:26:57;;;;;;;1222.13;563.70;;;13.10;99.90;;;;;;5148798;27;20308;-51
2022/10/19 12:29:28;;;;;;;848.33;443.10;;;13.20;99.90;;;;;;5114293;27;20217;-52
2022/10/19 12:31:57;;;;;;;1235.63;643.30;;;13.20;99.90;;;;;;5131772;27;20218;-52
2022/10/19 12:34:35;;;;;;;1102.70;596.13;;;13.20;99.90;;;;;;5135387;27;20241;-52
2022/10/19 12:37:08;;;;;;;1767.20;800.00;;;13.20;99.90;;;;;;5140443;27;20252;-51
2022/10/19 12:39:43;;;;;;;1124.60;535.17;;;13.10;99.90;;;;;;5132025;27;20243;-52
2022/10/19 12:42:21;;;;;;;863.10;536.03;;;13.20;99.90;;;;;;5151050;27;20203;-52
2022/10/19 12:45:13;;;;;;;676.43;388.23;;;13.20;99.90;;;;;;5151660;27;20200;-52